• Join FlightAware (Why Join?)
  • Login
  • US Flag 
03:46PM EDT


 

Airport Tracker/Info


-or-


 

Live Flight TrackerFlight Track Log ✈ GJS3649 ✈ 01-Sep-2013 ✈ KIAD - KJAX

Flight Track Log - Related Links

Times and Time Zones

All times are in EDT time to prevent confusion due to time zone crossing. See the GJS3649 flight status page for this flight to view local times or setup timezone preferences in your user account.

Time Position Orientation Groundspeed Altitude Reporting Facility
EDT Latitude Longitude Course Direction KTS MPH feet Rate Location/Type
08:33AM 38.8833 -77.4333 218° Southwest 212 244 2,400  Level Potomac TRACON
08:35AM 38.7633 -77.4606 190° South 253 291 7,200 2,760 Climbing Washington Center
08:36AM 38.5497 -77.6818 185° South  Level Estimated
08:36AM 38.6939 -77.5014 205° Southwest 266 306 9,900  Level Washington Center
08:37AM 38.4576 -77.6087 148° Southeast  Level FlightAware Approximate
08:37AM 38.6239 -77.5714 218° Southwest 293 337 11,600  Level Washington Center
08:38AM 38.3586 -77.6652 218° Southwest  Level Estimated
08:38AM 38.5433 -77.6489 217° Southwest 335 386 13,800  Level Washington Center
08:39AM 38.4608 -77.7289 217° Southwest 368 423 15,800 1,920 Climbing Washington Center
08:40AM 38.3736 -77.8136 217° Southwest 386 444 17,600 1,740 Climbing Washington Center
08:41AM 38.2844 -77.8983 217° Southwest 399 459 19,300 1,620 Climbing Washington Center
08:42AM 38.1953 -77.9828 217° Southwest 404 465 20,900 1,260 Climbing Washington Center
08:43AM 38.1017 -78.0722 217° Southwest 415 478 21,900 960 Climbing Washington Center
08:44AM 38.0039 -78.1611 216° Southwest 428 493 22,900 960 Climbing Washington Center
08:45AM 37.9100 -78.2581 219° Southwest 434 499 23,900 960 Climbing Washington Center
08:46AM 37.8119 -78.3492 216° Southwest 439 505 24,900 960 Climbing Washington Center
08:47AM 37.7203 -78.4350 217° Southwest 447 514 25,900 960 Climbing Washington Center
08:48AM 37.6222 -78.5283 217° Southwest 447 514 26,900 960 Climbing Washington Center
08:49AM 37.5219 -78.6214 216° Southwest 447 514 27,900 900 Climbing Washington Center
08:50AM 37.4214 -78.7142 216° Southwest 447 514 28,800 840 Climbing Washington Center
08:51AM 37.3103 -78.8192 217° Southwest 453 521 29,600 720 Climbing Washington Center
08:52AM 37.2075 -78.9142 216° Southwest 458 527 30,300 660 Climbing Washington Center
08:53AM 37.1003 -79.0136 217° Southwest 468 539 31,000 600 Climbing Washington Center
08:54AM 36.9953 -79.1078 216° Southwest 468 539 31,600 660 Climbing Washington Center
08:55AM 36.8922 -79.2044 217° Southwest 468 539 32,300 660 Climbing Washington Center
08:56AM 36.7978 -79.2908 216° Southwest 468 539 33,000 720 Climbing Washington Center
08:58AM 36.5306 -79.5356 216° Southwest 481 554 34,800 720 Climbing Atlanta Center
08:59AM 36.4233 -79.6319 216° Southwest 481 554 35,500 600 Climbing Atlanta Center
09:00AM 36.3183 -79.7278 216° Southwest 481 554 36,000 240 Climbing Atlanta Center
09:01AM 36.2111 -79.8236 216° Southwest 481 554 36,000  Level Atlanta Center
09:02AM 36.1200 -79.9056 216° Southwest 481 554 36,000  Level Atlanta Center
09:03AM 36.0081 -79.9856 210° Southwest 476 548 36,000  Level Atlanta Center
09:04AM 35.8842 -80.0278 195° South 455 524 36,000 -420 Level Atlanta Center
09:05AM 35.7458 -80.0728 195° South 469 540 35,200 -780 Descending Atlanta Center
09:06AM 35.6161 -80.1175 196° South 474 545 34,500 -600 Descending Atlanta Center
09:07AM 35.4922 -80.1592 195° South 474 545 34,000 -300 Descending Atlanta Center
09:08AM 35.3661 -80.1981 194° South 469 540 34,000  Level Atlanta Center
09:09AM 35.2442 -80.2394 195° South 469 540 34,000  Level Atlanta Center
09:11AM 35.0386 -80.3067 195° South 448 516 34,000  Level Jacksonville Center
09:12AM 34.9144 -80.3483 195° South 453 521 34,000  Level Jacksonville Center
09:13AM 34.7878 -80.3850 193° South 471 542 34,000  Level Jacksonville Center
09:14AM 34.6614 -80.4292 196° South 465 535 34,000  Level Jacksonville Center
09:15AM 34.5350 -80.4681 194° South 471 542 34,000  Level Jacksonville Center
09:16AM 34.4086 -80.5067 194° South 471 542 34,000  Level Jacksonville Center
09:17AM 34.2819 -80.5478 195° South 471 542 34,000  Level Jacksonville Center
09:18AM 34.1533 -80.5889 195° South 471 542 34,000  Level Jacksonville Center
09:19AM 34.0247 -80.6300 195° South 471 542 34,000  Level Jacksonville Center
09:20AM 33.8942 -80.6708 195° South 471 542 34,000  Level Jacksonville Center
09:21AM 33.7653 -80.7092 194° South 471 542 34,000  Level Jacksonville Center
09:22AM 33.6367 -80.7497 195° South 471 542 34,000  Level Jacksonville Center
09:23AM 33.5058 -80.7878 194° South 471 542 34,000  Level Jacksonville Center
09:24AM 33.3792 -80.8281 195° South 471 542 34,000  Level Jacksonville Center
09:25AM 33.2483 -80.8683 194° South 476 548 34,000  Level Jacksonville Center
09:26AM 33.1217 -80.9108 196° South 476 548 34,000 -360 Level Jacksonville Center
09:27AM 32.9783 -80.9511 193° South 476 548 33,300 -780 Descending Jacksonville Center
09:28AM 32.8517 -80.9911 195° South 476 548 32,500 -900 Descending Jacksonville Center
09:29AM 32.7228 -81.0283 194° South 476 548 31,500 -1,020 Descending Jacksonville Center
09:30AM 32.5981 -81.0678 195° South 464 534 30,500 -780 Descending Jacksonville Center
09:31AM 32.4836 -81.1022 194° South 478 550 30,000 -360 Descending Jacksonville Center
09:32AM 32.3422 -81.1419 193° South 472 543 29,800 -720 Descending Jacksonville Center
09:33AM 32.2197 -81.1786 194° South 465 535 28,600 -1,500 Descending Jacksonville Center
09:34AM 32.0947 -81.2006 188° South 460 529 26,900 -1,680 Descending Jacksonville Center
09:35AM 31.9736 -81.2028 181° South 450 518 25,300 -1,500 Descending Jacksonville Center
09:36AM 31.8589 -81.2072 182° South 429 494 23,900 -1,500 Descending Jacksonville Center
09:37AM 31.7569 -81.2361 194° South 421 484 22,400 -1,800 Descending Jacksonville Center
09:38AM 31.6364 -81.2722 194° South 411 473 20,300 -2,100 Descending Jacksonville Center
09:39AM 31.5261 -81.3058 195° South 416 479 18,300 -2,040 Descending Jacksonville Center
09:40AM 31.4303 -81.3344 194° South 400 460 16,300 -2,220 Descending Jacksonville Center
09:41AM 31.3325 -81.3653 195° South 383 441 14,300 -2,100 Descending Jacksonville Center
09:42AM 31.2431 -81.3886 193° South 363 418 12,700 -1,680 Descending Jacksonville Center
09:43AM 31.1453 -81.4142 193° South 349 402 11,100 -1,440 Descending Jacksonville Center
09:44AM 31.0597 -81.4253 186° South 343 395 10,000 -600 Descending Jacksonville Center
09:45AM 30.9706 -81.4631 200° South 312 359 10,000 -600 Level Jacksonville Center
09:46AM 30.9106 -81.5269 222° Southwest 277 319 8,800 -1,680 Descending Jacksonville Center
09:47AM 30.8486 -81.5956 224° Southwest 264 304 6,500 -1,980 Descending Jacksonville Center
09:48AM 30.7972 -81.6544 225° Southwest 251 289 4,600 -1,680 Descending Jacksonville Center
09:49AM 30.7453 -81.6864 208° Southwest 245 282 3,200 -840 Descending Jacksonville Center
09:50AM 30.6822 -81.6631 162° South 197 227 3,000 -360 Descending Jacksonville Center
09:51AM 30.6319 -81.6275 149° Southeast 193 222 2,500 -600 Descending Jacksonville Center
09:52AM 30.5878 -81.6064 158° South 182 209 1,800 -600 Descending Jacksonville Center
09:53AM 30.5461 -81.6094 184° South 162 186 1,500 -600 Descending Jacksonville Center
09:54AM 30.5172 -81.6364 219° Southwest 119 137 700 -720 Descending Jacksonville Center
09:55AM 30.5069 -81.6725 252° West 125 144 100 -600 Descending Jacksonville Center
09:57AM 30.4833 -81.6833 311° West  Level FlightAware Approximate